Time;durP1;ratioP1;P1;durP2;ratioP2;P2;SDS_P1;SDS_P2;PMS_P1;PMS_P2;Temp;Humidity;BMP_temperature;BMP_pressure;BME280_temperature;BME280_humidity;BME280_pressure;Samples;Min_cycle;Max_cycle;Signal;HPM_P1;HPM_P2
2023/09/29 00:01:47;;;;;;;2.60;1.90;;;;;;;16.69;65.94;99084.13;5120605;27;42002;-77
2023/09/29 00:04:15;;;;;;;3.03;2.27;;;;;;;16.52;65.85;99072.97;5155900;27;41798;-77
2023/09/29 00:06:42;;;;;;;2.30;1.97;;;;;;;16.61;66.06;99102.56;5137600;27;40050;-77
2023/09/29 00:09:12;;;;;;;2.73;1.97;;;;;;;16.54;65.75;99096.91;5137393;27;41750;-77
2023/09/29 00:11:41;;;;;;;3.20;1.83;;;;;;;16.48;65.35;99102.75;5137584;27;42784;-78
2023/09/29 00:14:08;;;;;;;4.17;2.23;;;;;;;16.43;65.12;99108.50;5137857;27;42226;-77
2023/09/29 00:16:36;;;;;;;2.83;1.93;;;;;;;16.27;65.30;99093.81;5138438;27;40855;-77
2023/09/29 00:19:03;;;;;;;2.10;1.80;;;;;;;16.35;65.59;99107.41;5138232;27;41610;-77
2023/09/29 00:21:30;;;;;;;2.87;2.00;;;;;;;16.33;65.12;99104.00;5138327;27;41706;-76
2023/09/29 00:23:58;;;;;;;2.80;2.07;;;;;;;16.30;64.87;99109.63;5120559;27;42145;-78
2023/09/29 00:26:25;;;;;;;2.20;2.00;;;;;;;16.27;65.38;99105.38;5138260;27;39910;-77
2023/09/29 00:28:55;;;;;;;2.10;1.80;;;;;;;16.23;65.27;99101.22;5137778;27;42079;-77
2023/09/29 00:31:23;;;;;;;2.17;1.70;;;;;;;16.23;65.24;99113.75;5156535;27;42642;-77
2023/09/29 00:33:50;;;;;;;2.37;1.77;;;;;;;16.17;65.60;99089.25;5137657;27;42156;-77
2023/09/29 00:36:18;;;;;;;2.33;1.90;;;;;;;16.17;69.00;99073.22;5156650;27;40940;-77
2023/09/29 00:38:46;;;;;;;3.03;2.37;;;;;;;16.15;70.09;99068.97;5118833;27;42141;-77
2023/09/29 00:41:14;;;;;;;2.57;2.30;;;;;;;15.99;69.98;99042.63;5152339;27;41813;-77
2023/09/29 00:43:41;;;;;;;4.47;2.60;;;;;;;16.14;71.64;99057.41;5150561;27;43070;-77
2023/09/29 00:46:10;;;;;;;2.80;2.50;;;;;;;16.13;70.94;99066.41;5176629;27;40990;-77
2023/09/29 00:48:38;;;;;;;4.57;2.40;;;;;;;16.12;69.70;99080.75;5157495;27;41554;-77
2023/09/29 00:51:07;;;;;;;3.17;2.50;;;;;;;16.12;69.41;99085.22;5157639;27;42713;-77
2023/09/29 00:53:38;;;;;;;2.30;1.93;;;;;;;16.08;68.87;99081.94;5157331;27;42387;-77
2023/09/29 00:56:06;;;;;;;2.70;2.13;;;;;;;16.05;68.52;99090.25;5157403;27;40100;-77
2023/09/29 00:58:34;;;;;;;3.13;2.17;;;;;;;16.01;68.17;99088.78;5157173;27;42003;-77
2023/09/29 01:01:01;;;;;;;2.00;1.80;;;;;;;15.96;68.09;99096.31;5157491;27;41713;-77
2023/09/29 01:03:31;;;;;;;3.23;2.00;;;;;;;15.88;67.63;99088.06;5139848;27;41183;-77
2023/09/29 01:05:58;;;;;;;2.77;1.93;;;;;;;15.82;67.48;99104.59;5157292;27;39805;-78
2023/09/29 01:08:29;;;;;;;4.17;2.20;;;;;;;15.78;67.40;99087.13;5156476;27;41729;-77
2023/09/29 01:10:57;;;;;;;2.13;1.93;;;;;;;15.75;67.27;99087.34;5154470;27;42714;-77
2023/09/29 01:13:24;;;;;;;2.10;1.77;;;;;;;15.61;67.65;99071.59;5140040;27;42435;-77
2023/09/29 01:15:53;;;;;;;2.60;1.90;;;;;;;15.68;67.56;99083.50;5141294;27;39762;-77
2023/09/29 01:18:21;;;;;;;2.30;1.90;;;;;;;15.65;67.31;99081.06;5140683;27;40608;-77
2023/09/29 01:20:50;;;;;;;2.57;1.90;;;;;;;15.51;67.91;99058.09;5140968;27;41890;-77
2023/09/29 01:23:17;;;;;;;2.43;1.83;;;;;;;15.60;67.94;99076.06;5157655;27;41070;-77
2023/09/29 01:25:47;;;;;;;2.43;1.90;;;;;;;15.58;68.79;99069.19;5139216;27;40258;-76
2023/09/29 01:28:14;;;;;;;2.60;2.00;;;;;;;15.52;68.67;99070.47;5139570;27;41657;-77
2023/09/29 01:30:42;;;;;;;3.10;2.10;;;;;;;15.55;68.53;99080.09;5156970;27;43693;-77
2023/09/29 01:33:10;;;;;;;2.83;2.10;;;;;;;15.53;68.29;99087.34;5139692;27;41521;-77
2023/09/29 01:35:39;;;;;;;2.23;2.03;;;;;;;15.50;68.12;99079.56;5139831;27;40054;-77
2023/09/29 01:38:07;;;;;;;2.47;1.87;;;;;;;15.47;68.81;99072.66;5156741;27;41708;-77
2023/09/29 01:40:34;;;;;;;3.47;1.70;;;;;;;15.46;68.56;99077.13;5175668;27;42914;-77
2023/09/29 01:43:03;;;;;;;2.43;2.03;;;;;;;15.44;68.94;99079.09;5156255;27;42183;-77
2023/09/29 01:45:32;;;;;;;2.53;2.27;;;;;;;15.42;68.69;99086.38;5139043;27;40404;-77
2023/09/29 01:48:00;;;;;;;3.33;2.33;;;;;;;15.37;68.65;99083.19;5156967;27;42527;-78
2023/09/29 01:50:28;;;;;;;2.67;1.93;;;;;;;15.38;68.76;99084.91;5156670;27;42558;-77
2023/09/29 01:52:55;;;;;;;2.47;1.97;;;;;;;15.35;68.73;99078.94;5139182;27;41406;-77
2023/09/29 01:55:24;;;;;;;2.10;1.90;;;;;;;15.30;68.74;99082.00;5156633;27;39953;-77
2023/09/29 01:57:54;;;;;;;2.23;2.03;;;;;;;15.26;68.84;99085.88;5139497;27;41894;-77
2023/09/29 02:00:25;;;;;;;2.77;1.73;;;;;;;15.21;69.46;99084.50;5156728;27;43621;-77
2023/09/29 02:02:53;;;;;;;3.23;2.20;;;;;;;15.06;69.11;99073.22;5156107;27;41196;-79
2023/09/29 02:05:21;;;;;;;3.17;2.23;;;;;;;15.12;68.73;99099.41;5138856;27;39776;-77
2023/09/29 02:07:50;;;;;;;2.43;2.07;;;;;;;15.08;68.86;99087.31;5139053;27;41776;-77
2023/09/29 02:10:19;;;;;;;2.63;2.00;;;;;;;15.06;70.07;99078.56;5139015;27;41777;-77
2023/09/29 02:12:52;;;;;;;2.23;1.93;;;;;;;14.96;69.79;99072.25;5139451;27;42263;-77
2023/09/29 02:15:19;;;;;;;2.90;2.10;;;;;;;15.05;69.30;99087.53;5157035;27;40273;-77
2023/09/29 02:17:49;;;;;;;2.30;1.97;;;;;;;14.98;69.23;99075.63;5139995;27;40733;-77
2023/09/29 02:20:18;;;;;;;2.60;1.97;;;;;;;15.04;69.26;99085.84;5139477;27;41700;-77
2023/09/29 02:22:47;;;;;;;2.23;1.90;;;;;;;15.03;69.36;99082.31;5175698;27;42235;-77
2023/09/29 02:25:17;;;;;;;2.53;1.87;;;;;;;15.01;69.01;99086.91;5139187;27;38883;-77
2023/09/29 02:27:46;;;;;;;3.03;1.67;;;;;;;15.02;69.38;99083.28;5153586;27;41732;-77
2023/09/29 02:30:14;;;;;;;2.20;1.93;;;;;;;15.01;70.04;99075.41;5139214;27;41952;-77
2023/09/29 02:32:42;;;;;;;3.63;2.00;;;;;;;15.00;71.03;99079.88;5139227;27;41159;-77
2023/09/29 02:35:11;;;;;;;3.60;2.03;;;;;;;14.90;70.64;99062.03;5156562;27;39077;-77
2023/09/29 02:37:41;;;;;;;2.63;2.30;;;;;;;14.99;70.38;99085.31;5139500;27;41732;-77
2023/09/29 02:40:15;;;;;;;3.27;2.57;;;;;;;14.96;70.42;99073.06;5156846;27;42524;-76
2023/09/29 02:42:44;;;;;;;2.43;2.23;;;;;;;14.95;70.94;99067.88;5135844;27;42412;-79
2023/09/29 02:45:12;;;;;;;4.57;2.47;;;;;;;14.93;70.96;99059.16;5153128;27;40190;-77
2023/09/29 02:47:41;;;;;;;2.27;2.00;;;;;;;14.82;71.31;99048.47;5137200;27;42131;-78
2023/09/29 02:50:12;;;;;;;3.17;2.30;;;;;;;14.91;70.75;99059.25;5138439;27;41880;-77
2023/09/29 02:52:41;;;;;;;2.13;1.93;;;;;;;14.91;70.72;99058.41;5137980;27;41046;-77
2023/09/29 02:55:12;;;;;;;2.83;2.17;;;;;;;14.91;70.55;99061.06;5138387;27;40174;-77
2023/09/29 02:57:41;;;;;;;3.00;2.10;;;;;;;14.89;70.69;99060.34;5152657;27;42675;-77
2023/09/29 03:00:12;;;;;;;2.70;2.13;;;;;;;14.89;70.60;99071.00;5174197;27;42815;-77
2023/09/29 03:02:39;;;;;;;3.70;2.23;;;;;;;14.79;70.94;99054.00;5152767;27;42322;-76
2023/09/29 03:05:08;;;;;;;3.17;2.27;;;;;;;14.84;70.73;99065.16;5137979;27;38906;-77
2023/09/29 03:07:37;;;;;;;4.33;2.63;;;;;;;14.80;71.48;99059.25;5155440;27;41278;-77
2023/09/29 03:10:05;;;;;;;2.60;2.20;;;;;;;14.69;72.55;99044.06;5155334;27;41722;-77
2023/09/29 03:12:33;;;;;;;2.50;2.30;;;;;;;14.71;72.42;99052.75;5138718;27;41205;-77
2023/09/29 03:15:00;;;;;;;3.63;2.70;;;;;;;14.69;72.14;99065.38;5156027;27;40957;-77
2023/09/29 03:17:32;;;;;;;2.70;2.20;;;;;;;14.69;71.83;99070.72;5156076;27;41417;-77
2023/09/29 03:19:59;;;;;;;2.23;2.00;;;;;;;14.67;71.78;99067.31;5174103;27;42896;-77
2023/09/29 03:22:27;;;;;;;3.40;2.43;;;;;;;14.65;72.02;99073.72;5156163;27;41094;-77
2023/09/29 03:24:56;;;;;;;2.40;2.20;;;;;;;14.56;71.60;99064.63;5155957;27;38918;-77
2023/09/29 07:49:08;;;;;;;6.27;4.80;;;;;;;16.60;86.17;99133.81;5108582;28;20569;-80
2023/09/29 07:51:38;;;;;;;7.67;4.70;;;;;;;17.28;83.41;99153.97;5141419;27;39906;-80
2023/09/29 07:54:05;;;;;;;8.83;4.97;;;;;;;17.99;79.09;99170.16;5124114;27;41186;-83
2023/09/29 07:56:33;;;;;;;3.77;3.47;;;;;;;18.58;76.35;99168.38;5107108;28;42341;-82
2023/09/29 07:59:01;;;;;;;6.23;4.00;;;;;;;19.09;72.96;99167.28;5124326;27;41053;-83
2023/09/29 08:01:28;;;;;;;6.63;3.80;;;;;;;19.58;70.66;99171.63;5090185;28;38716;-86
2023/09/29 08:03:57;;;;;;;5.17;4.03;;;;;;;19.99;69.42;99174.91;5124354;27;42207;-83
2023/09/29 08:06:26;;;;;;;5.03;3.80;;;;;;;20.33;67.56;99173.31;5090599;28;42317;-88
2023/09/29 08:08:53;;;;;;;4.23;3.37;;;;;;;20.69;66.62;99168.03;5090087;28;41482;-80
2023/09/29 08:11:21;;;;;;;4.63;3.70;;;;;;;21.05;64.62;99175.09;5089722;28;40274;-82
2023/09/29 08:13:52;;;;;;;3.97;3.50;;;;;;;21.44;63.12;99172.94;5107521;28;42247;-84
2023/09/29 08:16:19;;;;;;;4.20;3.63;;;;;;;21.92;61.02;99195.00;5090902;28;41810;-78
2023/09/29 08:18:46;;;;;;;6.30;3.77;;;;;;;22.26;59.30;99192.31;5089957;28;41505;-86
2023/09/29 08:21:14;;;;;;;5.13;3.30;;;;;;;22.38;58.66;99178.38;5107676;28;39868;-83
2023/09/29 08:23:43;;;;;;;5.20;3.47;;;;;;;22.68;58.25;99186.94;5107396;28;41502;-84
2023/09/29 08:26:10;;;;;;;4.83;3.57;;;;;;;22.96;57.31;99188.38;5090851;28;43256;-85
2023/09/29 08:28:38;;;;;;;4.63;3.17;;;;;;;23.31;56.33;99186.38;5072931;28;41100;-84
2023/09/29 08:31:13;;;;;;;4.67;3.30;;;;;;;23.49;54.10;99208.69;5090816;28;40544;-86
2023/09/29 08:33:50;;;;;;;7.03;3.67;;;;;;;23.48;54.34;99193.47;5090084;28;41384;-82
2023/09/29 08:36:25;;;;;;;6.03;3.50;;;;;;;23.35;53.42;99179.63;5091429;28;41985;-87
2023/09/29 08:39:06;;;;;;;4.20;3.33;;;;;;;23.43;54.26;99182.31;5107274;28;41790;-87
2023/09/29 08:41:35;;;;;;;3.10;2.80;;;;;;;23.56;54.03;99183.53;5107037;28;40255;-82
2023/09/29 08:44:03;;;;;;;6.80;3.13;;;;;;;24.10;52.99;99199.16;5088852;28;43002;-84
2023/09/29 08:46:34;;;;;;;4.53;3.00;;;;;;;24.27;51.81;99206.22;5089024;28;42110;-83
2023/09/29 08:49:03;;;;;;;3.00;2.50;;;;;;;24.47;50.89;99166.91;5089299;28;41357;-86
2023/09/29 08:51:36;;;;;;;3.40;2.43;;;;;;;25.52;49.47;99172.59;5090134;28;39665;-85
2023/09/29 08:54:08;;;;;;;4.27;3.50;;;;;;;27.18;45.55;99215.50;5072280;28;43051;-84
2023/09/29 08:56:35;;;;;;;3.27;2.70;;;;;;;27.76;44.16;99197.19;5090088;28;42733;-92
2023/09/29 08:59:03;;;;;;;4.10;2.70;;;;;;;28.39;41.22;99233.47;5084535;28;41852;-87
2023/09/29 09:01:54;;;;;;;3.30;2.90;;;;;;;28.87;41.54;99237.94;5076139;28;39068;-88
2023/09/29 09:04:24;;;;;;;3.10;2.40;;;;;;;29.11;39.76;99241.16;5059768;28;42031;-84
2023/09/29 09:06:52;;;;;;;3.20;2.37;;;;;;;28.81;39.83;99229.72;5058590;28;42594;-82
2023/09/29 09:09:24;;;;;;;3.00;2.77;;;;;;;28.42;40.58;99216.72;5092497;28;42124;-84
2023/09/29 09:11:53;;;;;;;4.17;3.17;;;;;;;29.15;39.94;99245.16;5093592;28;39995;-84
2023/09/29 09:14:20;;;;;;;3.20;2.60;;;;;;;29.51;39.18;99240.22;5094429;28;43018;-83
2023/09/29 09:16:47;;;;;;;5.73;3.03;;;;;;;29.60;39.56;99241.69;5092871;28;44123;-82
2023/09/29 09:19:16;;;;;;;4.53;2.60;;;;;;;29.62;39.58;99223.22;5093274;28;42820;-84
2023/09/29 09:21:46;;;;;;;3.17;2.70;;;;;;;29.82;39.22;99244.22;5075519;28;40578;-84
2023/09/29 09:24:20;;;;;;;4.37;2.57;;;;;;;29.93;39.76;99236.22;5093208;28;42254;-83
2023/09/29 09:26:50;;;;;;;3.47;3.03;;;;;;;29.76;39.12;99239.63;5093833;28;42926;-91
2023/09/29 09:29:18;;;;;;;4.17;3.10;;;;;;;29.55;38.87;99233.28;5093970;28;42917;-84
2023/09/29 09:31:47;;;;;;;4.10;2.53;;;;;;;29.67;39.63;99230.81;5059022;28;39649;-87
2023/09/29 09:34:14;;;;;;;5.90;2.53;;;;;;;29.77;39.82;99219.47;5076431;28;41926;-82
2023/09/29 09:36:51;;;;;;;3.90;3.07;;;;;;;29.86;39.19;99218.19;5075380;28;41955;-82
2023/09/29 09:39:27;;;;;;;2.90;2.50;;;;;;;29.52;39.88;99178.28;5076104;28;42196;-86
2023/09/29 09:41:57;;;;;;;2.67;2.43;;;;;;;29.83;39.54;99213.97;5074365;28;38912;-87
2023/09/29 09:44:25;;;;;;;2.77;2.50;;;;;;;29.95;39.33;99209.56;5091736;28;41020;-81
2023/09/29 09:47:00;;;;;;;3.07;2.67;;;;;;;30.16;39.00;99227.66;5090467;28;41384;-80
2023/09/29 09:49:36;;;;;;;2.90;2.60;;;;;;;30.33;39.14;99223.38;5089716;28;42435;-82
2023/09/29 09:52:07;;;;;;;5.30;2.90;;;;;;;30.53;38.33;99227.97;5088827;28;39856;-83
2023/09/29 09:54:45;;;;;;;2.97;2.67;;;;;;;30.52;37.74;99229.03;5088423;28;42302;-81
2023/09/29 09:57:24;;;;;;;2.63;2.13;;;;;;;30.45;37.72;99236.41;5088937;28;42969;-82
2023/09/29 09:59:54;;;;;;;5.03;2.60;;;;;;;30.26;38.05;99229.94;5075146;28;41513;-83
2023/09/29 10:02:24;;;;;;;3.17;2.77;;;;;;;30.23;38.40;99214.81;5074353;28;38942;-84
2023/09/29 10:04:53;;;;;;;3.13;2.83;;;;;;;30.46;38.07;99229.88;5074869;28;40930;-84
2023/09/29 10:07:21;;;;;;;3.73;3.10;;;;;;;30.73;37.65;99230.66;5092036;28;43038;-80
2023/09/29 10:09:49;;;;;;;4.20;3.43;;;;;;;31.21;37.35;99229.19;5073885;28;41151;-86
2023/09/29 10:12:26;;;;;;;3.63;2.80;;;;;;;32.40;36.24;99223.59;5073218;28;38495;-80
2023/09/29 10:14:53;;;;;;;3.35;2.50;;;;;;;33.87;33.64;99241.50;5091703;28;42276;-82
2023/09/29 10:17:21;;;;;;;3.70;2.67;;;;;;;34.38;32.48;99231.69;5074350;28;42735;-81
2023/09/29 10:22:31;;;;;;;3.22;2.75;;;;;;;36.11;30.72;99246.09;5075229;28;39955;-84
2023/09/29 10:25:10;;;;;;;4.35;2.80;;;;;;;36.44;29.79;99250.78;5078947;28;41104;-84
2023/09/29 10:27:39;;;;;;;3.28;2.97;;;;;;;37.25;28.60;99247.16;5075056;28;41757;-81
2023/09/29 10:30:16;;;;;;;6.20;2.90;;;;;;;38.34;27.83;99246.78;5091895;28;41991;-83
2023/09/29 10:32:48;;;;;;;6.10;2.92;;;;;;;39.07;26.69;99253.28;5074215;28;38923;-80
2023/09/29 10:35:20;;;;;;;5.03;2.83;;;;;;;40.03;26.13;99249.88;5088684;28;42459;-82
2023/09/29 10:38:12;;;;;;;3.10;2.80;;;;;;;40.05;25.83;99217.13;5074606;28;43024;-85
2023/09/29 10:40:42;;;;;;;3.25;2.95;;;;;;;39.86;25.64;99243.75;5057808;28;40878;-84
2023/09/29 10:43:12;;;;;;;3.22;2.92;;;;;;;40.03;25.27;99240.72;5072853;28;39245;-88
2023/09/29 10:45:40;;;;;;;3.65;3.03;;;;;;;39.10;25.70;99218.66;5056772;28;40796;-81
2023/09/29 10:48:09;;;;;;;3.47;2.78;;;;;;;38.42;26.83;99229.69;5090973;28;42767;-83
2023/09/29 10:50:43;;;;;;;2.85;2.60;;;;;;;37.68;27.31;99228.84;5095980;28;42462;-83
2023/09/29 10:53:12;;;;;;;4.07;2.80;;;;;;;36.93;28.06;99219.44;5088824;28;40922;-81
2023/09/29 10:55:44;;;;;;;3.85;2.65;;;;;;;36.47;29.14;99212.50;5078128;28;42285;-83
2023/09/29 10:58:21;;;;;;;4.00;2.80;;;;;;;36.93;29.18;99210.31;5073316;28;41982;-89
2023/09/29 11:01:09;;;;;;;3.05;2.83;;;;;;;36.66;28.54;99183.47;5073130;28;42570;-86
2023/09/29 11:03:52;;;;;;;3.10;2.80;;;;;;;36.38;29.24;99211.22;5073082;28;39253;-85
2023/09/29 11:06:21;;;;;;;3.63;2.65;;;;;;;35.98;29.22;99192.97;5073458;28;42919;-87
2023/09/29 11:08:53;;;;;;;2.30;2.10;;;;;;;37.05;28.42;99202.72;5073286;28;41631;-89
2023/09/29 11:11:20;;;;;;;2.90;2.50;;;;;;;38.87;27.33;99213.56;5073009;28;41824;-82
2023/09/29 11:13:57;;;;;;;3.53;2.60;;;;;;;40.89;24.42;99224.72;5091319;28;39945;-82
2023/09/29 11:16:27;;;;;;;3.08;2.75;;;;;;;43.31;22.65;99239.50;5091511;28;43538;-82
2023/09/29 11:18:56;;;;;;;2.35;2.20;;;;;;;45.54;20.69;99234.50;5091166;28;42978;-85
2023/09/29 11:21:34;;;;;;;2.72;2.40;;;;;;;46.99;19.38;99221.63;5090787;28;42144;-91
2023/09/29 11:24:06;;;;;;;4.32;2.42;;;;;;;47.74;17.86;99237.25;5074065;28;39296;-82
2023/09/29 11:26:38;;;;;;;2.63;2.42;;;;;;;47.03;18.42;99217.03;5091361;28;43185;-86
2023/09/29 11:29:28;;;;;;;2.60;2.40;;;;;;;45.57;19.24;99219.88;5073790;28;43089;-82
2023/09/29 11:31:57;;;;;;;2.30;2.10;;;;;;;44.44;20.54;99202.19;5074980;28;41586;-84
2023/09/29 11:34:29;;;;;;;2.47;2.13;;;;;;;43.03;21.29;99187.47;5093285;28;40044;-83
2023/09/29 11:36:56;;;;;;;3.38;2.58;;;;;;;43.48;21.62;99190.72;5074632;28;43609;-84
2023/09/29 11:39:24;;;;;;;2.83;2.60;;;;;;;45.20;20.11;99181.84;5091455;28;43530;-84
2023/09/29 11:41:51;;;;;;;3.17;2.30;;;;;;;46.64;18.21;99198.28;5073763;28;41564;-83
2023/09/29 11:44:20;;;;;;;2.75;2.33;;;;;;;47.64;17.77;99203.88;5071938;28;40343;-82
2023/09/29 11:46:48;;;;;;;2.28;2.08;;;;;;;48.45;17.26;99206.72;5089000;28;42059;-84
2023/09/29 11:49:15;;;;;;;3.05;2.40;;;;;;;49.19;16.19;99194.91;5072310;28;41944;-85
2023/09/29 11:51:43;;;;;;;2.83;2.20;;;;;;;49.31;16.08;99188.50;5089119;28;43043;-79
2023/09/29 11:54:11;;;;;;;2.13;2.00;;;;;;;49.16;15.94;99177.84;5071828;28;40329;-78
2023/09/29 11:56:41;;;;;;;2.28;2.08;;;;;;;49.22;16.48;99180.09;5088934;28;42921;-85
2023/09/29 11:59:12;;;;;;;2.75;2.03;;;;;;;49.58;15.61;99178.69;5072731;28;42572;-88
2023/09/29 12:01:46;;;;;;;5.18;2.10;;;;;;;49.86;15.62;99176.91;5089423;28;43080;-87
2023/09/29 12:04:13;;;;;;;2.55;2.35;;;;;;;50.16;15.50;99169.09;5072300;28;39997;-78
2023/09/29 12:06:41;;;;;;;1.95;1.80;;;;;;;49.92;14.76;99172.69;5090052;28;41715;-81
2023/09/29 12:09:08;;;;;;;2.15;1.98;;;;;;;49.27;15.93;99148.94;5071595;28;42902;-78
2023/09/29 12:11:35;;;;;;;2.58;2.38;;;;;;;48.92;15.61;99125.88;5071561;28;40913;-80
2023/09/29 12:14:03;;;;;;;2.30;2.10;;;;;;;48.67;16.60;99154.16;5089542;28;40291;-80
2023/09/29 12:16:31;;;;;;;2.30;2.10;;;;;;;48.03;16.44;99166.31;5072649;28;41410;-81
2023/09/29 12:19:00;;;;;;;3.00;2.35;;;;;;;47.32;17.18;99156.66;5090546;28;42636;-77
2023/09/29 12:21:27;;;;;;;2.88;2.28;;;;;;;47.53;17.14;99157.66;5072652;28;41024;-79
2023/09/29 12:23:54;;;;;;;2.30;2.10;;;;;;;47.54;16.76;99150.88;5073075;28;39702;-83
2023/09/29 12:26:22;;;;;;;3.30;1.98;;;;;;;47.43;17.17;99153.22;5089886;28;42502;-78
2023/09/29 12:28:50;;;;;;;2.50;2.28;;;;;;;46.94;17.28;99139.63;5089277;28;42912;-81
2023/09/29 12:31:18;;;;;;;2.10;1.90;;;;;;;46.35;17.73;99133.56;5090794;28;42594;-78
2023/09/29 12:33:46;;;;;;;2.83;1.80;;;;;;;45.85;18.02;99131.00;5089956;28;38975;-81
2023/09/29 12:36:15;;;;;;;3.00;2.10;;;;;;;45.26;18.62;99123.81;5093133;28;41964;-83
2023/09/29 12:38:43;;;;;;;2.67;2.40;;;;;;;44.84;19.39;99122.28;5075814;28;42993;-79
2023/09/29 12:41:12;;;;;;;2.28;2.08;;;;;;;44.51;19.63;99107.63;5092697;28;41624;-78
2023/09/29 12:43:40;;;;;;;2.35;2.15;;;;;;;44.65;19.58;99109.25;5094196;28;39891;-83
2023/09/29 12:46:07;;;;;;;1.92;1.83;;;;;;;44.93;19.68;99104.44;5093417;28;41725;-83
2023/09/29 12:48:34;;;;;;;3.25;2.10;;;;;;;45.22;19.60;99112.44;5092652;28;43729;-79
2023/09/29 12:51:02;;;;;;;3.75;2.50;;;;;;;45.29;19.45;99107.22;5094413;28;42492;-79
2023/09/29 12:53:31;;;;;;;3.22;2.75;;;;;;;45.23;19.30;99113.28;5092679;28;40445;-79
2023/09/29 12:55:59;;;;;;;2.83;2.45;;;;;;;45.23;19.36;99116.06;5093776;28;41799;-78
2023/09/29 12:58:27;;;;;;;2.10;1.90;;;;;;;44.99;19.22;99117.16;5075501;28;41687;-80
2023/09/29 13:00:55;;;;;;;2.20;2.10;;;;;;;44.75;19.33;99102.66;5094215;28;43167;-83
2023/09/29 13:03:23;;;;;;;2.50;2.30;;;;;;;44.04;19.71;99092.91;5093154;28;40318;-84
2023/09/29 13:05:50;;;;;;;4.00;2.53;;;;;;;43.58;20.01;99101.31;5093277;28;40735;-84
2023/09/29 13:08:17;;;;;;;2.95;2.55;;;;;;;43.29;20.40;99093.13;5093817;28;43405;-80
2023/09/29 13:10:46;;;;;;;3.92;2.55;;;;;;;43.47;20.40;99094.22;5093477;28;42096;-83
2023/09/29 13:13:14;;;;;;;2.75;2.40;;;;;;;43.28;20.33;99094.25;5075664;28;39838;-82
2023/09/29 13:15:42;;;;;;;4.07;2.40;;;;;;;42.98;20.88;99088.03;5092440;28;40941;-82
2023/09/29 13:18:09;;;;;;;2.72;2.35;;;;;;;42.69;20.92;99090.09;5092501;28;43014;-80
2023/09/29 13:20:38;;;;;;;2.53;2.30;;;;;;;42.33;21.08;99086.94;5074774;28;43516;-78
2023/09/29 13:23:06;;;;;;;2.30;2.10;;;;;;;42.24;21.75;99095.16;5092296;28;38845;-77
2023/09/29 13:25:44;;;;;;;2.92;2.22;;;;;;;42.25;21.30;99082.06;5089983;28;41865;-86
2023/09/29 13:28:17;;;;;;;3.55;2.30;;;;;;;42.08;21.45;99104.78;5074949;28;42318;-86
2023/09/29 13:30:45;;;;;;;2.55;2.22;;;;;;;41.64;21.72;99096.63;5074574;28;41737;-87
2023/09/29 13:33:33;;;;;;;2.25;2.05;;;;;;;41.09;21.91;99070.06;5058420;28;40688;-88
2023/09/29 13:38:44;;;;;;;2.35;2.15;;;;;;;40.80;22.97;99093.06;5074744;28;45112;-85
2023/09/29 13:44:15;;;;;;;2.47;2.28;;;;;;;40.19;23.65;99032.25;5074366;28;41550;-81
2023/09/29 13:46:42;;;;;;;2.50;2.30;;;;;;;40.06;23.69;99082.81;5074066;28;43395;-84
2023/09/29 13:49:30;;;;;;;2.75;2.55;;;;;;;38.80;24.84;99065.13;5074983;28;41429;-88
2023/09/29 13:51:57;;;;;;;3.05;2.30;;;;;;;38.12;25.86;99087.56;5074669;28;42475;-82
2023/09/29 13:54:25;;;;;;;3.88;2.13;;;;;;;37.45;26.88;99069.69;5079693;28;39010;-81
2023/09/29 13:56:52;;;;;;;3.90;2.42;;;;;;;36.98;27.52;99058.47;5108229;28;43642;-82
2023/09/29 13:59:21;;;;;;;2.72;2.30;;;;;;;36.55;28.18;99057.50;5099966;28;42606;-80
2023/09/29 14:01:48;;;;;;;2.58;2.38;;;;;;;36.02;28.80;99038.06;5092090;28;43366;-81
2023/09/29 14:04:17;;;;;;;3.33;2.22;;;;;;;35.79;29.24;99053.75;5073943;28;40044;-85
2023/09/29 14:06:52;;;;;;;4.10;2.55;;;;;;;35.51;29.41;99053.84;5075011;28;40846;-86
2023/09/29 14:09:23;;;;;;;3.17;2.53;;;;;;;35.21;29.95;99043.19;5074820;28;42103;-84
2023/09/29 14:14:43;;;;;;;2.67;2.47;;;;;;;34.51;30.77;99016.06;5075272;28;39001;-92
2023/09/29 14:17:10;;;;;;;2.73;2.07;;;;;;;34.44;30.65;99038.22;5075590;28;41265;-87
2023/09/29 14:19:38;;;;;;;2.23;2.07;;;;;;;35.01;30.34;99043.66;5075154;28;43243;-84
2023/09/29 14:22:06;;;;;;;2.63;2.27;;;;;;;35.56;29.95;99041.00;5075041;28;41491;-88
2023/09/29 14:24:36;;;;;;;2.42;2.22;;;;;;;35.94;29.38;99042.94;5074973;28;39072;-87
2023/09/29 14:27:09;;;;;;;2.60;2.13;;;;;;;35.93;29.33;99040.44;5075296;28;40866;-86
2023/09/29 14:29:41;;;;;;;2.30;2.10;;;;;;;35.70;29.09;99013.09;5075320;28;43403;-85
2023/09/29 14:32:11;;;;;;;3.73;2.57;;;;;;;35.74;29.68;99055.56;5073796;28;41588;-86
2023/09/29 14:34:41;;;;;;;2.60;2.30;;;;;;;35.39;30.43;99047.63;5058804;28;39958;-83
2023/09/29 14:37:09;;;;;;;2.50;2.23;;;;;;;34.97;30.76;99037.00;5091268;28;40914;-80
2023/09/29 14:39:36;;;;;;;2.40;2.20;;;;;;;34.53;31.37;99031.22;5092396;28;44074;-82
2023/09/29 14:42:04;;;;;;;4.70;2.40;;;;;;;34.20;32.19;99036.59;5090266;28;42628;-83
2023/09/29 14:44:33;;;;;;;2.67;2.47;;;;;;;33.78;32.89;99042.31;5090273;28;39665;-80
2023/09/29 14:47:06;;;;;;;3.80;2.63;;;;;;;33.21;33.65;99037.63;5089668;28;41723;-77
2023/09/29 14:49:35;;;;;;;2.53;2.33;;;;;;;32.55;34.34;99005.72;5090228;28;42262;-79
2023/09/29 14:52:03;;;;;;;4.00;2.50;;;;;;;32.34;35.12;99029.88;5090131;28;42866;-77
2023/09/29 14:54:33;;;;;;;2.50;2.30;;;;;;;31.93;35.60;99021.50;5073026;28;40265;-87
2023/09/29 14:57:00;;;;;;;2.77;2.20;;;;;;;31.54;36.11;99014.56;5071667;28;40978;-81
2023/09/29 14:59:28;;;;;;;3.97;2.63;;;;;;;31.36;37.02;99018.13;5090252;28;43590;-80
2023/09/29 15:01:55;;;;;;;3.40;2.40;;;;;;;31.15;37.04;99018.53;5089377;28;41114;-79
2023/09/29 15:04:22;;;;;;;2.87;2.60;;;;;;;31.01;37.69;99015.88;5073025;28;39325;-80
2023/09/29 15:06:51;;;;;;;3.00;2.37;;;;;;;30.92;38.15;99009.00;5089939;28;42183;-83
2023/09/29 15:09:19;;;;;;;2.90;2.50;;;;;;;30.82;38.19;99018.75;5089859;28;41782;-79
2023/09/29 15:11:46;;;;;;;3.20;2.70;;;;;;;30.68;38.72;99024.34;5089307;28;42009;-82
2023/09/29 15:14:14;;;;;;;3.30;2.50;;;;;;;30.52;39.26;99021.28;5073401;28;39572;-83
2023/09/29 15:16:41;;;;;;;3.43;2.50;;;;;;;30.29;39.46;99008.19;5073560;28;44186;-84
2023/09/29 15:19:14;;;;;;;3.73;2.40;;;;;;;30.14;40.72;99033.03;5074259;28;41589;-83
2023/09/29 15:21:42;;;;;;;3.03;2.40;;;;;;;29.75;41.22;99014.06;5074084;28;41541;-83
2023/09/29 15:26:53;;;;;;;2.90;2.40;;;;;;;29.43;42.37;99032.16;5074276;28;42135;-81
2023/09/29 15:29:22;;;;;;;3.97;1.97;;;;;;;29.24;42.86;99050.22;5090272;28;42180;-79
2023/09/29 15:31:49;;;;;;;2.50;2.07;;;;;;;29.05;43.44;99054.66;5088670;28;41187;-80
2023/09/29 15:34:17;;;;;;;7.23;2.40;;;;;;;28.89;44.09;99061.34;5073025;28;40157;-84
2023/09/29 15:36:44;;;;;;;3.90;2.27;;;;;;;28.73;44.25;99036.31;5090009;28;42306;-85
2023/09/29 15:39:14;;;;;;;3.57;2.37;;;;;;;28.74;44.27;99062.53;5089250;28;45301;-87
2023/09/29 15:41:45;;;;;;;5.00;2.47;;;;;;;28.53;44.81;99067.13;5073156;28;43207;-88
2023/09/29 15:44:15;;;;;;;2.37;2.17;;;;;;;28.22;45.32;99034.97;5072482;28;39086;-84
2023/09/29 15:49:24;;;;;;;5.53;2.00;;;;;;;28.04;45.97;99080.13;5072118;28;41668;-85
2023/09/29 15:51:52;;;;;;;2.77;2.40;;;;;;;27.89;46.55;99089.25;5089998;28;41578;-86
2023/09/29 15:54:21;;;;;;;3.27;2.40;;;;;;;27.65;46.91;99070.69;5089043;28;39580;-84
2023/09/29 15:56:49;;;;;;;4.67;2.40;;;;;;;27.64;47.13;99095.38;5072931;28;41876;-86
2023/09/29 15:59:16;;;;;;;6.47;2.87;;;;;;;27.15;47.30;99041.84;5072148;28;44599;-82
2023/09/29 16:01:44;;;;;;;2.80;2.13;;;;;;;27.35;47.48;99083.63;5089573;28;41447;-85
2023/09/29 16:04:14;;;;;;;8.03;3.00;;;;;;;27.14;47.46;99089.09;5090602;28;40694;-85
2023/09/29 16:06:42;;;;;;;3.73;2.60;;;;;;;27.15;47.69;99113.38;5072951;28;40602;-82
2023/09/29 16:09:09;;;;;;;6.13;3.10;;;;;;;26.97;47.81;99104.84;5073330;28;44536;-82
2023/09/29 16:11:38;;;;;;;7.03;3.00;;;;;;;26.87;47.37;99106.16;5076073;28;41505;-82
2023/09/29 16:14:06;;;;;;;7.37;4.27;;;;;;;26.72;46.89;99106.22;5093815;28;40046;-83
2023/09/29 16:16:36;;;;;;;8.00;4.27;;;;;;;26.73;46.71;99130.47;5094061;28;41921;-78
2023/09/29 16:19:03;;;;;;;8.43;4.33;;;;;;;26.46;46.78;99118.47;5094409;28;42688;-81
2023/09/29 16:21:31;;;;;;;8.50;4.60;;;;;;;26.39;47.00;99138.44;5093987;28;41830;-81
2023/09/29 16:23:58;;;;;;;8.03;3.93;;;;;;;26.11;47.37;99124.69;5093649;28;41097;-81